sensor_id;sensor_type;location;lat;lon;timestamp;P1;durP1;ratioP1;P2;durP2;ratioP2
1719;SDS011;857;52.872;9.692;2023-08-01T03:32:12;2.00;;;1.60;;
1719;SDS011;857;52.872;9.692;2023-08-01T03:34:42;2.70;;;2.37;;
1719;SDS011;857;52.872;9.692;2023-08-01T03:37:09;2.07;;;1.87;;
1719;SDS011;857;52.872;9.692;2023-08-01T03:39:38;3.83;;;2.83;;
1719;SDS011;857;52.872;9.692;2023-08-01T03:42:06;3.00;;;2.40;;
1719;SDS011;857;52.872;9.692;2023-08-01T03:44:33;3.07;;;2.53;;
1719;SDS011;857;52.872;9.692;2023-08-01T03:47:01;3.00;;;2.70;;
1719;SDS011;857;52.872;9.692;2023-08-01T03:49:30;1.77;;;1.60;;
1719;SDS011;857;52.872;9.692;2023-08-01T03:51:58;4.10;;;2.63;;
1719;SDS011;857;52.872;9.692;2023-08-01T03:54:25;3.33;;;2.70;;
1719;SDS011;857;52.872;9.692;2023-08-01T03:56:53;2.50;;;2.20;;
1719;SDS011;857;52.872;9.692;2023-08-01T03:59:21;4.70;;;2.53;;
1719;SDS011;857;52.872;9.692;2023-08-01T04:01:48;2.33;;;2.13;;
1719;SDS011;857;52.872;9.692;2023-08-01T04:04:16;1.73;;;1.63;;
1719;SDS011;857;52.872;9.692;2023-08-01T04:06:54;3.67;;;2.90;;
1719;SDS011;857;52.872;9.692;2023-08-01T04:09:22;2.87;;;2.67;;
1719;SDS011;857;52.872;9.692;2023-08-01T04:11:50;3.30;;;2.93;;
1719;SDS011;857;52.872;9.692;2023-08-01T04:14:17;4.00;;;3.07;;
1719;SDS011;857;52.872;9.692;2023-08-01T04:16:47;3.43;;;3.13;;
1719;SDS011;857;52.872;9.692;2023-08-01T04:22:09;4.00;;;3.30;;
1719;SDS011;857;52.872;9.692;2023-08-01T04:24:37;2.87;;;2.57;;
1719;SDS011;857;52.872;9.692;2023-08-01T04:27:05;1.80;;;1.70;;
1719;SDS011;857;52.872;9.692;2023-08-01T04:29:33;3.27;;;2.93;;
1719;SDS011;857;52.872;9.692;2023-08-01T04:32:00;2.60;;;2.40;;
1719;SDS011;857;52.872;9.692;2023-08-01T04:34:28;4.20;;;2.83;;
1719;SDS011;857;52.872;9.692;2023-08-01T04:36:56;5.03;;;3.10;;
1719;SDS011;857;52.872;9.692;2023-08-01T04:39:25;3.37;;;2.97;;
1719;SDS011;857;52.872;9.692;2023-08-01T04:41:53;2.80;;;2.53;;
1719;SDS011;857;52.872;9.692;2023-08-01T04:44:21;3.43;;;2.70;;
1719;SDS011;857;52.872;9.692;2023-08-01T04:46:49;4.50;;;3.57;;
1719;SDS011;857;52.872;9.692;2023-08-01T04:49:16;5.73;;;3.70;;
1719;SDS011;857;52.872;9.692;2023-08-01T04:51:44;3.70;;;2.80;;
1719;SDS011;857;52.872;9.692;2023-08-01T04:54:12;3.80;;;3.13;;
1719;SDS011;857;52.872;9.692;2023-08-01T04:56:41;2.90;;;2.30;;
1719;SDS011;857;52.872;9.692;2023-08-01T04:59:08;3.40;;;3.10;;
1719;SDS011;857;52.872;9.692;2023-08-01T05:01:36;3.57;;;3.27;;
1719;SDS011;857;52.872;9.692;2023-08-01T05:04:04;4.20;;;3.80;;
1719;SDS011;857;52.872;9.692;2023-08-01T05:06:31;5.10;;;3.40;;
1719;SDS011;857;52.872;9.692;2023-08-01T05:09:00;3.43;;;3.13;;
1719;SDS011;857;52.872;9.692;2023-08-01T05:11:28;3.40;;;2.67;;
1719;SDS011;857;52.872;9.692;2023-08-01T05:13:57;4.87;;;3.47;;
1719;SDS011;857;52.872;9.692;2023-08-01T05:16:25;3.80;;;2.97;;
1719;SDS011;857;52.872;9.692;2023-08-01T05:18:52;4.23;;;3.47;;
1719;SDS011;857;52.872;9.692;2023-08-01T05:21:20;4.80;;;4.00;;
1719;SDS011;857;52.872;9.692;2023-08-01T05:23:48;5.30;;;4.20;;
1719;SDS011;857;52.872;9.692;2023-08-01T05:26:16;4.47;;;4.00;;
1719;SDS011;857;52.872;9.692;2023-08-01T05:28:43;2.90;;;2.60;;
1719;SDS011;857;52.872;9.692;2023-08-01T05:31:12;3.77;;;3.37;;
1719;SDS011;857;52.872;9.692;2023-08-01T05:33:40;4.20;;;3.50;;
1719;SDS011;857;52.872;9.692;2023-08-01T05:36:08;3.27;;;2.73;;
1719;SDS011;857;52.872;9.692;2023-08-01T05:38:36;3.03;;;2.60;;
1719;SDS011;857;52.872;9.692;2023-08-01T05:41:03;2.97;;;2.20;;
1719;SDS011;857;52.872;9.692;2023-08-01T05:43:31;4.00;;;3.37;;
1719;SDS011;857;52.872;9.692;2023-08-01T05:45:59;5.00;;;3.40;;
1719;SDS011;857;52.872;9.692;2023-08-01T05:48:28;4.13;;;3.73;;
1719;SDS011;857;52.872;9.692;2023-08-01T05:50:56;4.57;;;4.10;;
1719;SDS011;857;52.872;9.692;2023-08-01T05:53:23;4.70;;;4.20;;
1719;SDS011;857;52.872;9.692;2023-08-01T05:55:52;6.17;;;4.97;;
1719;SDS011;857;52.872;9.692;2023-08-01T05:58:20;4.90;;;3.83;;
1719;SDS011;857;52.872;9.692;2023-08-01T06:00:48;5.63;;;3.77;;
1719;SDS011;857;52.872;9.692;2023-08-01T06:03:16;4.80;;;4.13;;
1719;SDS011;857;52.872;9.692;2023-08-01T06:05:45;4.43;;;3.50;;
1719;SDS011;857;52.872;9.692;2023-08-01T06:08:12;5.03;;;3.70;;
1719;SDS011;857;52.872;9.692;2023-08-01T06:10:41;3.03;;;2.30;;
1719;SDS011;857;52.872;9.692;2023-08-01T06:13:09;4.57;;;4.17;;
1719;SDS011;857;52.872;9.692;2023-08-01T06:15:36;7.17;;;4.17;;
1719;SDS011;857;52.872;9.692;2023-08-01T06:18:04;7.10;;;4.47;;
1719;SDS011;857;52.872;9.692;2023-08-01T06:20:32;5.40;;;4.60;;
1719;SDS011;857;52.872;9.692;2023-08-01T06:23:05;4.03;;;3.60;;
1719;SDS011;857;52.872;9.692;2023-08-01T06:25:32;4.73;;;4.20;;
1719;SDS011;857;52.872;9.692;2023-08-01T06:28:00;6.20;;;5.30;;
1719;SDS011;857;52.872;9.692;2023-08-01T06:30:28;7.97;;;5.83;;
1719;SDS011;857;52.872;9.692;2023-08-01T06:32:55;4.47;;;3.97;;
1719;SDS011;857;52.872;9.692;2023-08-01T06:35:23;3.57;;;3.27;;
1719;SDS011;857;52.872;9.692;2023-08-01T06:37:50;6.60;;;5.30;;
1719;SDS011;857;52.872;9.692;2023-08-01T06:40:20;4.50;;;3.07;;
1719;SDS011;857;52.872;9.692;2023-08-01T06:42:47;8.47;;;5.73;;
1719;SDS011;857;52.872;9.692;2023-08-01T06:45:15;7.47;;;5.63;;
1719;SDS011;857;52.872;9.692;2023-08-01T06:47:43;7.30;;;6.13;;
1719;SDS011;857;52.872;9.692;2023-08-01T06:50:10;3.37;;;2.70;;
1719;SDS011;857;52.872;9.692;2023-08-01T06:52:46;6.20;;;5.27;;
1719;SDS011;857;52.872;9.692;2023-08-01T06:55:14;7.47;;;4.30;;
1719;SDS011;857;52.872;9.692;2023-08-01T06:57:43;8.07;;;5.80;;
1719;SDS011;857;52.872;9.692;2023-08-01T07:00:11;6.53;;;5.50;;
1719;SDS011;857;52.872;9.692;2023-08-01T07:02:39;6.40;;;4.87;;
1719;SDS011;857;52.872;9.692;2023-08-01T07:05:07;10.03;;;6.67;;
1719;SDS011;857;52.872;9.692;2023-08-01T07:07:34;10.33;;;6.80;;
1719;SDS011;857;52.872;9.692;2023-08-01T07:10:02;6.93;;;4.10;;
1719;SDS011;857;52.872;9.692;2023-08-01T07:12:30;11.30;;;6.30;;
1719;SDS011;857;52.872;9.692;2023-08-01T07:14:59;9.13;;;6.70;;
1719;SDS011;857;52.872;9.692;2023-08-01T07:17:27;3.83;;;3.40;;
1719;SDS011;857;52.872;9.692;2023-08-01T07:19:54;6.90;;;5.53;;
1719;SDS011;857;52.872;9.692;2023-08-01T07:22:22;10.50;;;6.07;;
1719;SDS011;857;52.872;9.692;2023-08-01T07:24:52;9.17;;;7.00;;
1719;SDS011;857;52.872;9.692;2023-08-01T07:27:20;9.40;;;6.37;;
1719;SDS011;857;52.872;9.692;2023-08-01T07:29:47;8.00;;;6.10;;
1719;SDS011;857;52.872;9.692;2023-08-01T07:32:16;7.50;;;6.53;;
1719;SDS011;857;52.872;9.692;2023-08-01T07:34:44;6.50;;;3.73;;
1719;SDS011;857;52.872;9.692;2023-08-01T07:37:12;10.20;;;5.73;;
1719;SDS011;857;52.872;9.692;2023-08-01T07:39:39;10.83;;;6.50;;
1719;SDS011;857;52.872;9.692;2023-08-01T07:42:07;8.53;;;7.13;;
1719;SDS011;857;52.872;9.692;2023-08-01T07:44:35;4.50;;;3.70;;
1719;SDS011;857;52.872;9.692;2023-08-01T07:47:02;9.50;;;6.87;;
1719;SDS011;857;52.872;9.692;2023-08-01T07:49:32;12.50;;;6.70;;
1719;SDS011;857;52.872;9.692;2023-08-01T07:51:59;6.90;;;4.33;;
1719;SDS011;857;52.872;9.692;2023-08-01T07:54:27;9.70;;;6.83;;
1719;SDS011;857;52.872;9.692;2023-08-01T07:56:55;4.47;;;3.40;;
1719;SDS011;857;52.872;9.692;2023-08-01T07:59:22;5.10;;;4.40;;
1719;SDS011;857;52.872;9.692;2023-08-01T08:01:50;7.10;;;5.50;;
1719;SDS011;857;52.872;9.692;2023-08-01T08:04:18;5.53;;;4.60;;
1719;SDS011;857;52.872;9.692;2023-08-01T08:06:47;8.30;;;6.07;;
1719;SDS011;857;52.872;9.692;2023-08-01T08:09:15;8.83;;;6.10;;
1719;SDS011;857;52.872;9.692;2023-08-01T08:11:42;9.10;;;7.00;;
1719;SDS011;857;52.872;9.692;2023-08-01T08:14:10;6.30;;;4.40;;
1719;SDS011;857;52.872;9.692;2023-08-01T08:16:40;13.30;;;6.13;;
1719;SDS011;857;52.872;9.692;2023-08-01T08:19:07;8.47;;;5.77;;
1719;SDS011;857;52.872;9.692;2023-08-01T08:21:35;7.63;;;5.77;;
1719;SDS011;857;52.872;9.692;2023-08-01T08:24:04;8.57;;;5.93;;
1719;SDS011;857;52.872;9.692;2023-08-01T08:26:32;3.60;;;2.93;;
1719;SDS011;857;52.872;9.692;2023-08-01T08:29:03;5.70;;;4.47;;
1719;SDS011;857;52.872;9.692;2023-08-01T08:31:31;3.47;;;3.17;;
1719;SDS011;857;52.872;9.692;2023-08-01T08:33:58;3.10;;;2.30;;
1719;SDS011;857;52.872;9.692;2023-08-01T08:36:26;4.90;;;4.50;;
1719;SDS011;857;52.872;9.692;2023-08-01T08:38:54;5.83;;;4.10;;
1719;SDS011;857;52.872;9.692;2023-08-01T08:41:23;7.30;;;3.70;;
1719;SDS011;857;52.872;9.692;2023-08-01T08:43:54;6.20;;;3.80;;
1719;SDS011;857;52.872;9.692;2023-08-01T08:46:23;4.70;;;3.43;;
1719;SDS011;857;52.872;9.692;2023-08-01T08:48:54;3.20;;;2.63;;
1719;SDS011;857;52.872;9.692;2023-08-01T08:51:22;4.70;;;3.00;;
1719;SDS011;857;52.872;9.692;2023-08-01T08:53:51;5.63;;;2.90;;
1719;SDS011;857;52.872;9.692;2023-08-01T08:56:20;4.43;;;3.17;;
1719;SDS011;857;52.872;9.692;2023-08-01T08:58:50;3.50;;;3.10;;
1719;SDS011;857;52.872;9.692;2023-08-01T09:01:18;2.70;;;2.50;;
1719;SDS011;857;52.872;9.692;2023-08-01T09:03:46;4.20;;;3.10;;
1719;SDS011;857;52.872;9.692;2023-08-01T09:06:14;3.67;;;2.60;;
1719;SDS011;857;52.872;9.692;2023-08-01T09:08:44;2.97;;;2.30;;
1719;SDS011;857;52.872;9.692;2023-08-01T09:11:15;4.20;;;2.57;;
1719;SDS011;857;52.872;9.692;2023-08-01T09:13:43;2.70;;;2.50;;
1719;SDS011;857;52.872;9.692;2023-08-01T09:16:12;2.53;;;2.33;;
1719;SDS011;857;52.872;9.692;2023-08-01T09:18:48;2.80;;;2.40;;
1719;SDS011;857;52.872;9.692;2023-08-01T09:21:20;2.53;;;2.00;;
1719;SDS011;857;52.872;9.692;2023-08-01T09:23:47;3.73;;;2.57;;
1719;SDS011;857;52.872;9.692;2023-08-01T09:26:16;3.33;;;2.23;;
1719;SDS011;857;52.872;9.692;2023-08-01T09:28:44;2.50;;;2.00;;
1719;SDS011;857;52.872;9.692;2023-08-01T09:31:13;2.40;;;2.07;;
1719;SDS011;857;52.872;9.692;2023-08-01T09:33:41;2.57;;;2.10;;
1719;SDS011;857;52.872;9.692;2023-08-01T09:36:09;2.70;;;2.00;;
1719;SDS011;857;52.872;9.692;2023-08-01T09:38:37;6.60;;;2.80;;
1719;SDS011;857;52.872;9.692;2023-08-01T09:41:05;3.63;;;2.53;;
1719;SDS011;857;52.872;9.692;2023-08-01T09:43:33;3.00;;;2.07;;
1719;SDS011;857;52.872;9.692;2023-08-01T09:46:01;3.03;;;2.30;;
1719;SDS011;857;52.872;9.692;2023-08-01T09:48:30;4.73;;;2.17;;
1719;SDS011;857;52.872;9.692;2023-08-01T09:51:05;3.30;;;2.67;;
1719;SDS011;857;52.872;9.692;2023-08-01T09:53:33;3.50;;;2.50;;
1719;SDS011;857;52.872;9.692;2023-08-01T09:56:01;3.30;;;2.10;;
1719;SDS011;857;52.872;9.692;2023-08-01T09:58:30;2.80;;;2.10;;
1719;SDS011;857;52.872;9.692;2023-08-01T10:00:59;2.97;;;2.40;;
1719;SDS011;857;52.872;9.692;2023-08-01T10:03:27;2.60;;;2.13;;
1719;SDS011;857;52.872;9.692;2023-08-01T10:05:56;4.03;;;2.00;;
1719;SDS011;857;52.872;9.692;2023-08-01T10:08:24;6.03;;;2.67;;
1719;SDS011;857;52.872;9.692;2023-08-01T10:10:53;2.90;;;2.30;;
1719;SDS011;857;52.872;9.692;2023-08-01T10:13:23;2.50;;;2.30;;
1719;SDS011;857;52.872;9.692;2023-08-01T10:15:51;2.80;;;2.33;;
1719;SDS011;857;52.872;9.692;2023-08-01T10:18:19;2.50;;;2.23;;
1719;SDS011;857;52.872;9.692;2023-08-01T10:20:47;3.27;;;2.37;;
1719;SDS011;857;52.872;9.692;2023-08-01T10:23:18;3.37;;;2.17;;
1719;SDS011;857;52.872;9.692;2023-08-01T10:25:49;2.93;;;2.40;;
1719;SDS011;857;52.872;9.692;2023-08-01T10:28:39;4.00;;;3.20;;
1719;SDS011;857;52.872;9.692;2023-08-01T10:31:07;2.23;;;2.00;;
1719;SDS011;857;52.872;9.692;2023-08-01T10:33:36;2.50;;;2.30;;
1719;SDS011;857;52.872;9.692;2023-08-01T10:36:13;3.60;;;2.30;;
1719;SDS011;857;52.872;9.692;2023-08-01T10:38:47;3.70;;;2.03;;
1719;SDS011;857;52.872;9.692;2023-08-01T10:41:18;2.73;;;1.97;;
1719;SDS011;857;52.872;9.692;2023-08-01T10:43:46;2.03;;;1.93;;
1719;SDS011;857;52.872;9.692;2023-08-01T10:46:14;3.20;;;2.67;;
1719;SDS011;857;52.872;9.692;2023-08-01T10:48:48;2.00;;;1.90;;
1719;SDS011;857;52.872;9.692;2023-08-01T10:51:16;2.07;;;1.93;;
1719;SDS011;857;52.872;9.692;2023-08-01T10:53:44;2.40;;;1.80;;
1719;SDS011;857;52.872;9.692;2023-08-01T10:56:16;2.37;;;1.90;;
1719;SDS011;857;52.872;9.692;2023-08-01T10:58:44;3.33;;;1.77;;
1719;SDS011;857;52.872;9.692;2023-08-01T11:01:12;1.90;;;1.70;;
1719;SDS011;857;52.872;9.692;2023-08-01T11:03:40;4.57;;;2.23;;
1719;SDS011;857;52.872;9.692;2023-08-01T11:06:08;2.53;;;1.80;;
1719;SDS011;857;52.872;9.692;2023-08-01T11:08:36;2.60;;;2.10;;
1719;SDS011;857;52.872;9.692;2023-08-01T11:11:04;2.30;;;1.97;;
1719;SDS011;857;52.872;9.692;2023-08-01T11:13:34;2.40;;;1.87;;
1719;SDS011;857;52.872;9.692;2023-08-01T11:16:02;2.57;;;2.00;;
1719;SDS011;857;52.872;9.692;2023-08-01T11:18:30;2.23;;;2.03;;
1719;SDS011;857;52.872;9.692;2023-08-01T11:20:58;2.07;;;1.80;;
1719;SDS011;857;52.872;9.692;2023-08-01T11:23:29;2.50;;;1.70;;
1719;SDS011;857;52.872;9.692;2023-08-01T11:25:56;2.13;;;1.90;;
1719;SDS011;857;52.872;9.692;2023-08-01T11:28:24;2.10;;;1.87;;
1719;SDS011;857;52.872;9.692;2023-08-01T11:30:53;2.33;;;1.87;;
1719;SDS011;857;52.872;9.692;2023-08-01T11:33:22;7.37;;;3.40;;
1719;SDS011;857;52.872;9.692;2023-08-01T11:35:50;3.50;;;1.63;;
1719;SDS011;857;52.872;9.692;2023-08-01T11:38:37;3.43;;;1.67;;
1719;SDS011;857;52.872;9.692;2023-08-01T11:41:06;1.27;;;1.17;;
1719;SDS011;857;52.872;9.692;2023-08-01T11:43:40;1.93;;;1.70;;
1719;SDS011;857;52.872;9.692;2023-08-01T11:46:09;2.50;;;1.77;;
1719;SDS011;857;52.872;9.692;2023-08-01T11:48:37;1.30;;;1.20;;
1719;SDS011;857;52.872;9.692;2023-08-01T11:51:05;2.27;;;1.50;;
1719;SDS011;857;52.872;9.692;2023-08-01T11:53:32;1.43;;;1.10;;
1719;SDS011;857;52.872;9.692;2023-08-01T11:56:04;1.90;;;1.63;;
1719;SDS011;857;52.872;9.692;2023-08-01T11:58:32;2.23;;;1.60;;
1719;SDS011;857;52.872;9.692;2023-08-01T12:01:03;1.63;;;1.47;;
1719;SDS011;857;52.872;9.692;2023-08-01T12:03:41;3.93;;;1.70;;
1719;SDS011;857;52.872;9.692;2023-08-01T12:06:09;2.33;;;1.87;;
1719;SDS011;857;52.872;9.692;2023-08-01T12:08:39;1.87;;;1.50;;
1719;SDS011;857;52.872;9.692;2023-08-01T12:11:16;1.60;;;1.50;;
1719;SDS011;857;52.872;9.692;2023-08-01T12:13:45;1.37;;;1.27;;
1719;SDS011;857;52.872;9.692;2023-08-01T12:16:12;2.23;;;1.70;;
1719;SDS011;857;52.872;9.692;2023-08-01T12:18:46;1.53;;;1.40;;
1719;SDS011;857;52.872;9.692;2023-08-01T12:21:14;2.00;;;1.40;;
1719;SDS011;857;52.872;9.692;2023-08-01T12:23:42;2.10;;;1.80;;
1719;SDS011;857;52.872;9.692;2023-08-01T12:26:09;2.20;;;1.63;;
1719;SDS011;857;52.872;9.692;2023-08-01T12:28:37;1.97;;;1.50;;
1719;SDS011;857;52.872;9.692;2023-08-01T12:31:05;2.00;;;1.47;;
1719;SDS011;857;52.872;9.692;2023-08-01T12:33:33;2.00;;;1.40;;
1719;SDS011;857;52.872;9.692;2023-08-01T12:36:02;1.37;;;1.20;;
1719;SDS011;857;52.872;9.692;2023-08-01T12:38:30;1.33;;;1.23;;
1719;SDS011;857;52.872;9.692;2023-08-01T12:40:57;1.70;;;1.60;;
1719;SDS011;857;52.872;9.692;2023-08-01T12:43:25;2.57;;;1.53;;
1719;SDS011;857;52.872;9.692;2023-08-01T12:45:52;1.93;;;1.73;;
1719;SDS011;857;52.872;9.692;2023-08-01T12:48:21;1.60;;;1.50;;
1719;SDS011;857;52.872;9.692;2023-08-01T12:50:48;2.53;;;1.40;;
1719;SDS011;857;52.872;9.692;2023-08-01T12:53:17;3.40;;;1.47;;
1719;SDS011;857;52.872;9.692;2023-08-01T12:55:45;2.50;;;1.50;;
1719;SDS011;857;52.872;9.692;2023-08-01T12:58:14;2.03;;;1.83;;
1719;SDS011;857;52.872;9.692;2023-08-01T13:00:42;2.03;;;1.30;;
1719;SDS011;857;52.872;9.692;2023-08-01T13:03:10;1.97;;;1.53;;
1719;SDS011;857;52.872;9.692;2023-08-01T13:05:38;1.80;;;1.60;;
1719;SDS011;857;52.872;9.692;2023-08-01T13:08:06;2.33;;;1.47;;
1719;SDS011;857;52.872;9.692;2023-08-01T13:10:35;3.83;;;1.90;;
1719;SDS011;857;52.872;9.692;2023-08-01T13:13:04;2.17;;;1.90;;
1719;SDS011;857;52.872;9.692;2023-08-01T13:15:31;2.00;;;1.80;;
1719;SDS011;857;52.872;9.692;2023-08-01T13:17:59;2.03;;;1.80;;
1719;SDS011;857;52.872;9.692;2023-08-01T13:20:27;2.10;;;1.90;;
1719;SDS011;857;52.872;9.692;2023-08-01T13:22:55;6.20;;;2.53;;
1719;SDS011;857;52.872;9.692;2023-08-01T13:25:22;2.37;;;1.80;;
1719;SDS011;857;52.872;9.692;2023-08-01T13:27:51;1.80;;;1.70;;
1719;SDS011;857;52.872;9.692;2023-08-01T13:30:19;2.40;;;1.80;;
1719;SDS011;857;52.872;9.692;2023-08-01T13:32:47;1.80;;;1.60;;
1719;SDS011;857;52.872;9.692;2023-08-01T13:35:14;3.03;;;1.80;;
1719;SDS011;857;52.872;9.692;2023-08-01T13:37:42;5.53;;;2.80;;
1719;SDS011;857;52.872;9.692;2023-08-01T13:40:10;3.33;;;2.50;;
1719;SDS011;857;52.872;9.692;2023-08-01T13:42:39;3.27;;;2.57;;
1719;SDS011;857;52.872;9.692;2023-08-01T13:45:09;3.40;;;1.73;;
1719;SDS011;857;52.872;9.692;2023-08-01T13:47:36;4.03;;;2.93;;
1719;SDS011;857;52.872;9.692;2023-08-01T13:50:04;1.67;;;1.57;;
1719;SDS011;857;52.872;9.692;2023-08-01T13:52:32;2.20;;;1.87;;
1719;SDS011;857;52.872;9.692;2023-08-01T13:55:00;2.67;;;1.70;;
1719;SDS011;857;52.872;9.692;2023-08-01T13:57:28;2.30;;;2.10;;
1719;SDS011;857;52.872;9.692;2023-08-01T13:59:56;1.40;;;1.30;;
1719;SDS011;857;52.872;9.692;2023-08-01T14:02:25;4.53;;;2.20;;
1719;SDS011;857;52.872;9.692;2023-08-01T14:04:55;2.10;;;1.90;;
1719;SDS011;857;52.872;9.692;2023-08-01T14:07:22;2.77;;;1.80;;
1719;SDS011;857;52.872;9.692;2023-08-01T14:09:50;2.20;;;1.70;;
1719;SDS011;857;52.872;9.692;2023-08-01T14:12:18;2.03;;;1.67;;
1719;SDS011;857;52.872;9.692;2023-08-01T14:14:47;2.23;;;1.60;;
1719;SDS011;857;52.872;9.692;2023-08-01T14:17:16;1.83;;;1.73;;
1719;SDS011;857;52.872;9.692;2023-08-01T14:19:45;1.70;;;1.40;;
1719;SDS011;857;52.872;9.692;2023-08-01T14:22:13;1.73;;;1.30;;
1719;SDS011;857;52.872;9.692;2023-08-01T14:24:40;2.37;;;1.50;;
1719;SDS011;857;52.872;9.692;2023-08-01T14:27:08;1.87;;;1.40;;
1719;SDS011;857;52.872;9.692;2023-08-01T14:29:36;1.47;;;1.10;;
1719;SDS011;857;52.872;9.692;2023-08-01T14:32:04;1.80;;;1.20;;
1719;SDS011;857;52.872;9.692;2023-08-01T14:34:32;1.77;;;1.40;;
1719;SDS011;857;52.872;9.692;2023-08-01T14:37:01;1.90;;;1.37;;
1719;SDS011;857;52.872;9.692;2023-08-01T14:39:29;2.30;;;1.23;;
1719;SDS011;857;52.872;9.692;2023-08-01T14:41:56;1.53;;;1.30;;
1719;SDS011;857;52.872;9.692;2023-08-01T14:44:24;1.70;;;1.37;;
1719;SDS011;857;52.872;9.692;2023-08-01T14:46:52;2.20;;;1.43;;
1719;SDS011;857;52.872;9.692;2023-08-01T14:49:20;2.00;;;1.60;;
1719;SDS011;857;52.872;9.692;2023-08-01T14:51:48;1.73;;;1.63;;
1719;SDS011;857;52.872;9.692;2023-08-01T14:54:17;2.60;;;1.73;;
1719;SDS011;857;52.872;9.692;2023-08-01T14:56:45;2.37;;;1.97;;
1719;SDS011;857;52.872;9.692;2023-08-01T14:59:13;3.87;;;1.80;;
1719;SDS011;857;52.872;9.692;2023-08-01T15:01:41;3.20;;;1.87;;
1719;SDS011;857;52.872;9.692;2023-08-01T15:04:08;3.37;;;2.30;;
1719;SDS011;857;52.872;9.692;2023-08-01T15:06:36;2.17;;;1.57;;
1719;SDS011;857;52.872;9.692;2023-08-01T15:09:04;2.37;;;2.10;;
1719;SDS011;857;52.872;9.692;2023-08-01T15:11:33;2.83;;;1.80;;
1719;SDS011;857;52.872;9.692;2023-08-01T15:14:00;2.20;;;2.00;;
1719;SDS011;857;52.872;9.692;2023-08-01T15:16:28;1.90;;;1.40;;
1719;SDS011;857;52.872;9.692;2023-08-01T15:18:55;2.40;;;1.90;;
1719;SDS011;857;52.872;9.692;2023-08-01T15:21:23;1.67;;;1.40;;
1719;SDS011;857;52.872;9.692;2023-08-01T15:23:52;2.03;;;1.40;;
1719;SDS011;857;52.872;9.692;2023-08-01T15:26:20;2.47;;;1.53;;
1719;SDS011;857;52.872;9.692;2023-08-01T15:28:49;1.50;;;1.40;;
1719;SDS011;857;52.872;9.692;2023-08-01T15:31:17;2.70;;;1.50;;
1719;SDS011;857;52.872;9.692;2023-08-01T15:33:44;1.30;;;1.20;;
1719;SDS011;857;52.872;9.692;2023-08-01T15:36:12;1.63;;;1.53;;
1719;SDS011;857;52.872;9.692;2023-08-01T15:38:40;1.40;;;1.30;;
1719;SDS011;857;52.872;9.692;2023-08-01T15:41:09;2.20;;;1.43;;
1719;SDS011;857;52.872;9.692;2023-08-01T15:43:37;2.60;;;1.40;;
1719;SDS011;857;52.872;9.692;2023-08-01T15:46:07;2.50;;;1.73;;
1719;SDS011;857;52.872;9.692;2023-08-01T15:48:35;1.63;;;1.50;;
1719;SDS011;857;52.872;9.692;2023-08-01T15:51:03;1.90;;;1.80;;
1719;SDS011;857;52.872;9.692;2023-08-01T15:53:31;1.57;;;1.30;;
1719;SDS011;857;52.872;9.692;2023-08-01T15:55:59;3.53;;;1.50;;
1719;SDS011;857;52.872;9.692;2023-08-01T15:58:27;2.00;;;1.37;;
1719;SDS011;857;52.872;9.692;2023-08-01T16:00:55;3.37;;;1.63;;
1719;SDS011;857;52.872;9.692;2023-08-01T16:03:25;1.77;;;1.20;;
1719;SDS011;857;52.872;9.692;2023-08-01T16:05:53;3.70;;;1.50;;
1719;SDS011;857;52.872;9.692;2023-08-01T16:08:21;1.50;;;1.40;;
1719;SDS011;857;52.872;9.692;2023-08-01T16:10:49;2.73;;;1.50;;
1719;SDS011;857;52.872;9.692;2023-08-01T16:13:17;2.13;;;1.40;;
1719;SDS011;857;52.872;9.692;2023-08-01T16:15:45;2.20;;;1.60;;
1719;SDS011;857;52.872;9.692;2023-08-01T16:18:14;2.30;;;1.40;;
1719;SDS011;857;52.872;9.692;2023-08-01T16:20:43;1.80;;;1.60;;
1719;SDS011;857;52.872;9.692;2023-08-01T16:23:10;1.80;;;1.40;;
1719;SDS011;857;52.872;9.692;2023-08-01T16:25:38;1.40;;;1.30;;
1719;SDS011;857;52.872;9.692;2023-08-01T16:28:06;3.20;;;1.67;;
1719;SDS011;857;52.872;9.692;2023-08-01T16:30:33;2.27;;;1.70;;
1719;SDS011;857;52.872;9.692;2023-08-01T16:33:02;1.53;;;1.43;;
1719;SDS011;857;52.872;9.692;2023-08-01T16:35:31;2.97;;;1.53;;
1719;SDS011;857;52.872;9.692;2023-08-01T16:38:00;2.40;;;1.93;;
1719;SDS011;857;52.872;9.692;2023-08-01T16:40:28;3.37;;;1.30;;
1719;SDS011;857;52.872;9.692;2023-08-01T16:42:56;1.30;;;1.20;;
1719;SDS011;857;52.872;9.692;2023-08-01T16:45:24;1.63;;;1.53;;
1719;SDS011;857;52.872;9.692;2023-08-01T16:47:52;1.30;;;1.20;;
1719;SDS011;857;52.872;9.692;2023-08-01T16:50:20;1.57;;;1.40;;
1719;SDS011;857;52.872;9.692;2023-08-01T16:52:48;2.20;;;1.30;;
1719;SDS011;857;52.872;9.692;2023-08-01T16:55:17;2.77;;;1.30;;
1719;SDS011;857;52.872;9.692;2023-08-01T16:57:45;2.83;;;1.57;;
1719;SDS011;857;52.872;9.692;2023-08-01T17:00:13;2.80;;;1.60;;
1719;SDS011;857;52.872;9.692;2023-08-01T17:02:41;1.33;;;1.20;;
1719;SDS011;857;52.872;9.692;2023-08-01T17:05:09;1.23;;;1.13;;
1719;SDS011;857;52.872;9.692;2023-08-01T17:07:38;2.60;;;1.50;;
1719;SDS011;857;52.872;9.692;2023-08-01T17:10:06;1.70;;;1.23;;
1719;SDS011;857;52.872;9.692;2023-08-01T17:12:35;2.10;;;1.40;;
1719;SDS011;857;52.872;9.692;2023-08-01T17:15:03;1.40;;;1.30;;
1719;SDS011;857;52.872;9.692;2023-08-01T17:17:31;2.50;;;1.53;;
1719;SDS011;857;52.872;9.692;2023-08-01T17:19:59;2.07;;;1.87;;
1719;SDS011;857;52.872;9.692;2023-08-01T17:22:29;1.37;;;1.27;;
1719;SDS011;857;52.872;9.692;2023-08-01T17:24:56;2.10;;;1.53;;
1719;SDS011;857;52.872;9.692;2023-08-01T17:27:24;1.60;;;1.50;;
1719;SDS011;857;52.872;9.692;2023-08-01T17:29:53;1.90;;;1.57;;
1719;SDS011;857;52.872;9.692;2023-08-01T17:32:21;1.30;;;1.20;;
1719;SDS011;857;52.872;9.692;2023-08-01T17:34:48;2.20;;;1.67;;
1719;SDS011;857;52.872;9.692;2023-08-01T17:37:16;2.93;;;1.27;;
1719;SDS011;857;52.872;9.692;2023-08-01T17:39:44;2.50;;;1.40;;
1719;SDS011;857;52.872;9.692;2023-08-01T17:42:11;3.07;;;1.50;;
1719;SDS011;857;52.872;9.692;2023-08-01T17:44:39;1.67;;;1.57;;
1719;SDS011;857;52.872;9.692;2023-08-01T17:47:08;1.40;;;1.30;;
1719;SDS011;857;52.872;9.692;2023-08-01T17:49:36;2.20;;;1.90;;
1719;SDS011;857;52.872;9.692;2023-08-01T17:52:04;1.93;;;1.80;;
1719;SDS011;857;52.872;9.692;2023-08-01T17:54:32;1.70;;;1.53;;
1719;SDS011;857;52.872;9.692;2023-08-01T17:56:59;1.30;;;1.20;;
1719;SDS011;857;52.872;9.692;2023-08-01T17:59:27;1.60;;;1.50;;
1719;SDS011;857;52.872;9.692;2023-08-01T18:01:55;1.67;;;1.50;;
1719;SDS011;857;52.872;9.692;2023-08-01T18:04:24;1.60;;;1.40;;
1719;SDS011;857;52.872;9.692;2023-08-01T18:06:51;1.30;;;1.20;;
1719;SDS011;857;52.872;9.692;2023-08-01T18:09:19;2.27;;;1.87;;
1719;SDS011;857;52.872;9.692;2023-08-01T18:11:47;3.50;;;1.50;;
1719;SDS011;857;52.872;9.692;2023-08-01T18:14:14;1.60;;;1.50;;
1719;SDS011;857;52.872;9.692;2023-08-01T18:16:42;2.03;;;1.70;;
1719;SDS011;857;52.872;9.692;2023-08-01T18:19:10;1.90;;;1.50;;
1719;SDS011;857;52.872;9.692;2023-08-01T18:21:39;1.47;;;1.40;;
1719;SDS011;857;52.872;9.692;2023-08-01T18:24:06;1.70;;;1.60;;
1719;SDS011;857;52.872;9.692;2023-08-01T18:26:34;2.90;;;1.73;;
1719;SDS011;857;52.872;9.692;2023-08-01T18:29:04;2.50;;;1.37;;
1719;SDS011;857;52.872;9.692;2023-08-01T18:31:31;1.60;;;1.47;;
1719;SDS011;857;52.872;9.692;2023-08-01T18:33:59;1.53;;;1.43;;
1719;SDS011;857;52.872;9.692;2023-08-01T18:36:27;1.50;;;1.40;;
1719;SDS011;857;52.872;9.692;2023-08-01T18:38:57;0.90;;;0.90;;
1719;SDS011;857;52.872;9.692;2023-08-01T18:41:25;1.40;;;1.30;;
1719;SDS011;857;52.872;9.692;2023-08-01T18:43:52;2.13;;;1.60;;
1719;SDS011;857;52.872;9.692;2023-08-01T18:46:20;1.97;;;1.57;;
1719;SDS011;857;52.872;9.692;2023-08-01T18:48:48;1.73;;;1.50;;
1719;SDS011;857;52.872;9.692;2023-08-01T18:51:17;3.90;;;1.70;;
1719;SDS011;857;52.872;9.692;2023-08-01T18:53:45;1.67;;;1.20;;
1719;SDS011;857;52.872;9.692;2023-08-01T18:56:15;1.50;;;1.20;;
1719;SDS011;857;52.872;9.692;2023-08-01T18:58:45;1.70;;;1.60;;
1719;SDS011;857;52.872;9.692;2023-08-01T19:01:13;1.80;;;1.70;;
1719;SDS011;857;52.872;9.692;2023-08-01T19:03:41;2.60;;;1.50;;
1719;SDS011;857;52.872;9.692;2023-08-01T19:06:09;2.53;;;1.77;;
1719;SDS011;857;52.872;9.692;2023-08-01T19:08:37;1.80;;;1.70;;
1719;SDS011;857;52.872;9.692;2023-08-01T19:11:04;1.07;;;1.00;;